createdAt,value
2023-03-06T00:00:56.176Z,13.60
2023-03-06T00:03:28.351Z,14.02
2023-03-06T00:05:59.957Z,13.27
2023-03-06T00:08:33.101Z,14.02
2023-03-06T00:11:03.561Z,13.52
2023-03-06T00:13:35.299Z,12.70
2023-03-06T00:16:07.215Z,13.07
2023-03-06T00:18:38.083Z,13.23
2023-03-06T00:21:10.904Z,12.45
2023-03-06T00:23:44.332Z,13.10
2023-03-06T00:26:14.800Z,13.68
2023-03-06T00:28:45.919Z,12.15
2023-03-06T00:31:16.503Z,13.52
2023-03-06T00:33:47.103Z,14.13
2023-03-06T00:36:17.697Z,14.00
2023-03-06T00:38:50.841Z,14.35
2023-03-06T00:41:21.364Z,14.07
2023-03-06T00:43:51.937Z,13.88
2023-03-06T00:46:22.346Z,13.00
2023-03-06T00:48:52.933Z,13.57
2023-03-06T00:51:24.829Z,12.80
2023-03-06T00:53:57.888Z,13.35
2023-03-06T00:56:28.537Z,13.68
2023-03-06T00:58:59.095Z,13.00
2023-03-06T01:01:29.748Z,13.20
2023-03-06T01:04:00.134Z,13.68
2023-03-06T01:06:31.843Z,12.77
2023-03-06T01:09:05.052Z,12.55
2023-03-06T01:11:35.643Z,12.48
2023-03-06T01:14:06.297Z,12.52
2023-03-06T01:16:40.043Z,12.60
2023-03-06T01:19:10.879Z,12.68
2023-03-06T01:21:43.050Z,12.38
2023-03-06T01:24:16.237Z,11.25
2023-03-06T01:26:46.692Z,12.43
2023-03-06T01:29:18.470Z,12.15
2023-03-06T01:31:49.124Z,11.45
2023-03-06T01:34:19.752Z,12.38
2023-03-06T01:36:50.913Z,11.55
2023-03-06T01:39:24.040Z,11.20
2023-03-06T01:41:54.461Z,12.02
2023-03-06T01:44:25.824Z,11.52
2023-03-06T01:46:56.355Z,11.95
2023-03-06T01:49:29.743Z,12.45
2023-03-06T01:52:05.439Z,11.65
2023-03-06T01:54:44.680Z,11.50
2023-03-06T01:57:17.991Z,11.05
2023-03-06T01:59:53.347Z,11.48
2023-03-06T02:02:24.391Z,12.30
2023-03-06T02:04:55.011Z,11.65
2023-03-06T02:07:25.912Z,11.93
2023-03-06T02:09:59.662Z,12.50
2023-03-06T02:12:30.301Z,11.52
2023-03-06T02:15:01.030Z,12.52
2023-03-06T02:17:33.192Z,11.93
2023-03-06T02:20:10.694Z,11.68
2023-03-06T02:22:52.601Z,12.73
2023-03-06T02:25:36.608Z,11.38
2023-03-06T02:28:08.276Z,12.55
2023-03-06T02:30:39.439Z,11.70
2023-03-06T02:33:10.278Z,13.02
2023-03-06T02:35:42.391Z,11.15
2023-03-06T02:38:16.745Z,11.10
2023-03-06T02:43:28.526Z,11.63
2023-03-06T02:45:59.160Z,10.93
2023-03-06T02:48:30.101Z,11.55
2023-03-06T02:51:00.660Z,11.80
2023-03-06T02:53:31.699Z,11.98
2023-03-06T02:56:05.882Z,11.77
2023-03-06T02:58:36.786Z,11.68
2023-03-06T03:01:08.013Z,11.73
2023-03-06T03:03:39.061Z,12.77
2023-03-06T03:06:11.030Z,12.57
2023-03-06T03:08:41.819Z,12.63
2023-03-06T03:11:16.027Z,12.88
2023-03-06T03:13:48.101Z,11.48
2023-03-06T03:16:23.953Z,11.68
2023-03-06T03:18:54.659Z,11.68
2023-03-06T03:21:26.939Z,12.30
2023-03-06T03:23:59.246Z,11.38
2023-03-06T03:26:34.578Z,11.88
2023-03-06T03:29:11.117Z,12.10
2023-03-06T03:31:41.920Z,11.80
2023-03-06T03:34:12.917Z,11.23
2023-03-06T03:36:45.536Z,10.82
2023-03-06T03:39:18.269Z,11.20
2023-03-06T03:41:51.383Z,11.43
2023-03-06T03:44:23.029Z,12.75
2023-03-06T03:46:53.620Z,12.35
2023-03-06T03:49:26.323Z,14.98
2023-03-06T03:51:57.653Z,14.77
2023-03-06T03:54:30.776Z,13.15
2023-03-06T03:57:04.574Z,12.50
2023-03-06T03:59:38.688Z,12.43
2023-03-06T04:02:24.047Z,11.23
2023-03-06T04:05:02.309Z,11.63
2023-03-06T04:07:34.104Z,12.05
2023-03-06T04:10:04.592Z,12.77
2023-03-06T04:12:37.980Z,12.95
2023-03-06T04:15:10.373Z,13.10
2023-03-06T04:17:41.903Z,11.57
2023-03-06T04:20:17.968Z,11.30
2023-03-06T04:22:50.190Z,11.80
2023-03-06T04:25:21.361Z,10.93
2023-03-06T04:27:55.369Z,12.05
2023-03-06T04:30:26.034Z,11.07
2023-03-06T04:32:56.592Z,11.52
2023-03-06T04:35:27.342Z,11.68
2023-03-06T04:38:05.855Z,12.25
2023-03-06T04:40:39.183Z,11.68
2023-03-06T04:43:12.449Z,12.07
2023-03-06T04:45:43.416Z,11.95
2023-03-06T04:48:16.644Z,11.43
2023-03-06T04:50:47.430Z,12.63
2023-03-06T04:53:20.011Z,12.15
2023-03-06T04:55:50.622Z,12.98
2023-03-06T04:58:24.820Z,13.82
2023-03-06T05:00:55.414Z,12.88
2023-03-06T05:03:26.083Z,13.13
2023-03-06T05:05:56.631Z,11.73
2023-03-06T05:08:27.097Z,12.35
2023-03-06T05:10:59.408Z,12.77
2023-03-06T05:13:32.785Z,12.63
2023-03-06T05:16:05.790Z,12.77
2023-03-06T05:18:36.973Z,11.55
2023-03-06T05:21:08.352Z,13.07
2023-03-06T05:23:41.654Z,12.82
2023-03-06T05:26:14.102Z,12.25
2023-03-06T05:28:47.249Z,12.73
2023-03-06T05:31:17.783Z,12.32
2023-03-06T05:33:48.411Z,12.48
2023-03-06T05:36:18.854Z,13.48
2023-03-06T05:38:49.266Z,12.10
2023-03-06T05:41:19.906Z,12.52
2023-03-06T05:43:53.063Z,13.80
2023-03-06T05:46:23.508Z,14.48
2023-03-06T05:48:55.505Z,15.48
2023-03-06T05:51:26.831Z,14.25
2023-03-06T05:53:57.246Z,14.77
2023-03-06T05:56:27.731Z,16.05
2023-03-06T05:59:00.840Z,15.48
2023-03-06T06:01:31.545Z,13.32
2023-03-06T06:04:02.078Z,15.15
2023-03-06T06:06:32.549Z,16.23
2023-03-06T06:09:03.491Z,14.05
2023-03-06T06:11:33.975Z,13.98
2023-03-06T06:14:07.166Z,14.38
2023-03-06T06:16:37.686Z,14.18
2023-03-06T06:19:08.123Z,14.80
2023-03-06T06:21:38.561Z,13.95
2023-03-06T06:24:09.748Z,14.05
2023-03-06T06:26:40.166Z,14.68
2023-03-06T06:29:13.663Z,14.43
2023-03-06T06:31:44.658Z,14.30
2023-03-06T06:34:15.658Z,15.15
2023-03-06T06:36:46.553Z,14.25
2023-03-06T06:39:19.167Z,13.38
2023-03-06T06:42:05.550Z,12.77
2023-03-06T06:44:43.183Z,18.05
2023-03-06T06:47:23.659Z,15.55
2023-03-06T06:49:55.886Z,16.17
2023-03-06T06:52:27.789Z,12.57
2023-03-06T06:54:58.541Z,10.82
2023-03-06T06:57:29.086Z,13.55
2023-03-06T07:00:02.170Z,10.65
2023-03-06T07:02:35.901Z,10.60
2023-03-06T07:05:06.437Z,6.88
2023-03-06T07:07:38.705Z,5.50
2023-03-06T07:10:14.319Z,5.50
2023-03-06T07:12:44.811Z,5.53
2023-03-06T07:15:19.351Z,5.68
2023-03-06T07:17:50.346Z,6.60
2023-03-06T07:20:21.780Z,5.78
2023-03-06T07:22:52.661Z,5.88
2023-03-06T07:25:23.858Z,5.75
2023-03-06T07:27:56.166Z,5.88
2023-03-06T07:30:29.645Z,6.25
2023-03-06T07:33:01.302Z,5.80
2023-03-06T07:35:32.056Z,6.03
2023-03-06T07:38:02.770Z,6.20
2023-03-06T07:40:33.262Z,5.55
2023-03-06T07:43:18.299Z,6.18
2023-03-06T07:46:06.113Z,8.52
2023-03-06T07:48:37.955Z,6.03
2023-03-06T07:51:11.218Z,5.82
2023-03-06T07:53:41.814Z,5.97
2023-03-06T07:56:13.049Z,5.95
2023-03-06T07:58:45.234Z,5.40
2023-03-06T08:01:20.204Z,5.70
2023-03-06T08:03:51.845Z,5.63
2023-03-06T08:06:23.983Z,6.10
2023-03-06T08:08:55.814Z,5.70
2023-03-06T08:11:28.063Z,5.78
2023-03-06T08:13:59.822Z,5.70
2023-03-06T08:16:33.958Z,5.93
2023-03-06T08:19:04.432Z,5.80
2023-03-06T08:21:34.886Z,6.07
2023-03-06T08:24:07.473Z,5.97
2023-03-06T08:26:38.108Z,6.50
2023-03-06T08:29:08.684Z,5.78
2023-03-06T08:31:43.563Z,6.28
2023-03-06T08:34:16.264Z,6.47
2023-03-06T08:36:47.008Z,6.07
2023-03-06T08:39:18.086Z,5.78
2023-03-06T08:41:48.601Z,6.40
2023-03-06T08:44:19.087Z,5.68
2023-03-06T08:46:52.272Z,6.57
2023-03-06T08:49:23.023Z,5.85
2023-03-06T08:51:53.663Z,6.10
2023-03-06T08:54:24.267Z,5.65
2023-03-06T08:56:54.806Z,6.63
2023-03-06T08:59:25.355Z,5.90
2023-03-06T09:01:58.488Z,6.63
2023-03-06T09:04:29.300Z,6.22
2023-03-06T09:06:59.811Z,6.22
2023-03-06T09:09:30.271Z,5.75
2023-03-06T09:12:00.769Z,6.43
2023-03-06T09:14:31.436Z,6.50
2023-03-06T09:17:04.517Z,7.18
2023-03-06T09:19:35.064Z,7.03
2023-03-06T09:22:05.496Z,6.50
2023-03-06T09:24:36.412Z,6.55
2023-03-06T09:27:07.157Z,6.57
2023-03-06T09:29:37.614Z,6.38
2023-03-06T09:32:12.254Z,6.57
2023-03-06T09:34:42.889Z,6.80
2023-03-06T09:37:13.314Z,7.07
2023-03-06T09:39:43.888Z,7.38
2023-03-06T09:42:18.994Z,6.93
2023-03-06T09:44:54.943Z,6.53
2023-03-06T09:47:48.575Z,6.07
2023-03-06T09:50:42.156Z,6.07
2023-03-06T09:53:24.035Z,6.35
2023-03-06T09:56:03.917Z,6.75
2023-03-06T09:58:40.785Z,6.00
2023-03-06T10:01:20.502Z,6.18
2023-03-06T10:03:57.937Z,6.65
2023-03-06T10:06:33.221Z,6.60
2023-03-06T10:09:08.530Z,6.35
2023-03-06T10:11:44.911Z,6.70
2023-03-06T10:14:24.807Z,6.55
2023-03-06T10:16:55.262Z,6.70
2023-03-06T10:19:36.757Z,6.78
2023-03-06T10:22:16.030Z,7.00
2023-03-06T10:24:56.159Z,6.70
2023-03-06T10:27:41.778Z,6.25
2023-03-06T10:30:28.975Z,6.43
2023-03-06T10:33:01.898Z,6.68
2023-03-06T10:35:48.932Z,5.95
2023-03-06T10:38:24.112Z,5.97
2023-03-06T10:41:05.170Z,6.85
2023-03-06T10:43:36.613Z,5.90
2023-03-06T10:46:08.457Z,6.15
2023-03-06T10:48:41.997Z,5.65
2023-03-06T10:51:20.575Z,6.07
2023-03-06T10:53:57.485Z,6.10
2023-03-06T10:56:33.345Z,6.05
2023-03-06T10:59:12.231Z,6.43
2023-03-06T11:01:43.844Z,6.05
2023-03-06T11:04:30.355Z,6.68
2023-03-06T11:07:18.956Z,6.35
2023-03-06T11:10:03.799Z,5.82
2023-03-06T11:12:36.779Z,6.70
2023-03-06T11:15:24.034Z,5.95
2023-03-06T11:17:57.808Z,6.10
2023-03-06T11:20:48.601Z,6.40
2023-03-06T11:23:27.740Z,6.22
2023-03-06T11:26:01.574Z,6.32
2023-03-06T11:28:35.716Z,6.65
2023-03-06T11:31:11.777Z,6.45
2023-03-06T11:33:48.793Z,5.82
2023-03-06T11:36:26.771Z,6.65
2023-03-06T11:38:59.924Z,5.40
2023-03-06T11:41:42.109Z,6.45
2023-03-06T11:44:23.378Z,5.88
2023-03-06T11:47:01.938Z,6.13
2023-03-06T11:49:36.225Z,5.70
2023-03-06T11:52:12.114Z,5.40
2023-03-06T11:54:45.308Z,6.43
2023-03-06T11:57:20.819Z,6.13
2023-03-06T12:00:20.060Z,5.80
2023-03-06T12:03:23.206Z,5.32
2023-03-06T12:06:03.980Z,6.07
2023-03-06T12:08:54.547Z,5.90
2023-03-06T12:11:35.756Z,6.22
2023-03-06T12:14:34.612Z,5.60
2023-03-06T12:17:15.466Z,5.65
2023-03-06T12:19:59.497Z,5.53
2023-03-06T12:22:57.803Z,5.78
2023-03-06T12:25:38.251Z,7.50
2023-03-06T12:28:32.259Z,5.60
2023-03-06T12:31:27.419Z,5.60
2023-03-06T12:34:09.969Z,5.72
2023-03-06T12:36:53.675Z,6.22
2023-03-06T12:39:38.158Z,6.05
2023-03-06T12:42:33.098Z,6.00
2023-03-06T12:45:34.931Z,5.63
2023-03-06T12:48:05.596Z,5.88
2023-03-06T12:50:39.201Z,5.50
2023-03-06T12:53:15.822Z,5.70
2023-03-06T12:55:49.807Z,5.10
2023-03-06T12:58:51.820Z,5.40
2023-03-06T13:01:55.833Z,5.47
2023-03-06T13:04:37.301Z,5.93
2023-03-06T13:07:23.032Z,5.72
2023-03-06T13:10:08.028Z,6.65
2023-03-06T13:12:55.881Z,10.07
2023-03-06T13:16:07.306Z,7.10
2023-03-06T13:19:05.268Z,7.13
2023-03-06T13:22:11.139Z,6.78
2023-03-06T13:24:44.266Z,6.75
2023-03-06T13:27:35.856Z,5.53
2023-03-06T13:30:25.943Z,5.53
2023-03-06T13:32:58.103Z,5.32
2023-03-06T13:35:55.617Z,5.50
2023-03-06T13:38:37.882Z,5.68
2023-03-06T13:41:44.019Z,5.55
2023-03-06T13:44:51.207Z,5.80
2023-03-06T13:48:02.887Z,5.88
2023-03-06T13:50:39.083Z,5.35
2023-03-06T13:53:40.936Z,5.45
2023-03-06T13:56:44.321Z,5.57
2023-03-06T13:59:38.839Z,5.40
2023-03-06T14:02:28.220Z,7.00
2023-03-06T14:05:00.880Z,6.68
2023-03-06T14:07:34.794Z,6.53
2023-03-06T14:10:17.865Z,7.10
2023-03-06T14:13:04.425Z,5.90
2023-03-06T14:15:49.072Z,5.78
2023-03-06T14:18:24.012Z,5.68
2023-03-06T14:20:59.767Z,4.88
2023-03-06T14:23:34.539Z,6.15
2023-03-06T14:26:18.130Z,7.20
2023-03-06T14:28:59.459Z,5.50
2023-03-06T14:31:35.651Z,6.07
2023-03-06T14:34:08.182Z,6.30
2023-03-06T14:36:45.206Z,6.68
2023-03-06T14:39:18.023Z,6.60
2023-03-06T14:41:48.560Z,5.93
2023-03-06T14:44:22.218Z,5.72
2023-03-06T14:46:58.070Z,5.93
2023-03-06T14:49:29.578Z,6.03
2023-03-06T14:52:02.578Z,6.20
2023-03-06T14:54:37.128Z,5.78
2023-03-06T14:57:11.127Z,7.07
2023-03-06T14:59:46.851Z,6.75
2023-03-06T15:02:25.853Z,6.55
2023-03-06T15:05:01.567Z,7.97
2023-03-06T15:07:35.924Z,9.00
2023-03-06T15:10:10.728Z,8.23
2023-03-06T15:12:42.507Z,7.93
2023-03-06T15:15:32.762Z,8.18
2023-03-06T15:18:06.254Z,7.82
2023-03-06T15:20:46.547Z,7.03
2023-03-06T15:23:22.930Z,8.15
2023-03-06T15:25:56.119Z,8.07
2023-03-06T15:28:33.227Z,8.05
2023-03-06T15:31:20.147Z,7.13
2023-03-06T15:34:24.084Z,8.48
2023-03-06T15:36:59.896Z,7.45
2023-03-06T15:39:39.390Z,7.45
2023-03-06T15:42:20.962Z,8.38
2023-03-06T15:44:53.501Z,8.57
2023-03-06T15:47:24.585Z,9.02
2023-03-06T15:49:58.027Z,9.95
2023-03-06T15:52:28.644Z,9.13
2023-03-06T15:54:59.070Z,9.55
2023-03-06T15:57:32.075Z,8.85
2023-03-06T16:00:04.963Z,8.60
2023-03-06T16:02:42.170Z,7.30
2023-03-06T16:05:18.659Z,7.18
2023-03-06T16:07:49.756Z,8.45
2023-03-06T16:10:22.455Z,8.95
2023-03-06T16:12:55.745Z,9.27
2023-03-06T16:15:29.230Z,10.27
2023-03-06T16:18:00.278Z,10.48
2023-03-06T16:20:33.857Z,7.22
2023-03-06T16:23:10.503Z,8.32
2023-03-06T16:25:42.496Z,8.32
2023-03-06T16:28:15.365Z,9.80
2023-03-06T16:30:48.040Z,9.25
2023-03-06T16:33:18.594Z,8.90
2023-03-06T16:35:51.892Z,7.53
2023-03-06T16:38:22.353Z,9.38
2023-03-06T16:40:52.986Z,9.23
2023-03-06T16:43:23.492Z,7.93
2023-03-06T16:45:54.062Z,11.20
2023-03-06T16:48:24.547Z,8.60
2023-03-06T16:50:57.666Z,13.75
2023-03-06T16:53:28.260Z,12.52
2023-03-06T16:55:58.981Z,12.20
2023-03-06T16:58:29.533Z,12.70
2023-03-06T17:01:00.713Z,13.00
2023-03-06T17:03:31.440Z,9.15
2023-03-06T17:06:04.629Z,9.43
2023-03-06T17:08:35.250Z,11.30
2023-03-06T17:11:08.703Z,12.45
2023-03-06T17:13:39.239Z,11.90
2023-03-06T17:16:11.484Z,12.68
2023-03-06T17:18:42.092Z,13.50
2023-03-06T17:21:17.624Z,13.38
2023-03-06T17:26:20.402Z,12.70
2023-03-06T17:28:51.175Z,12.50
2023-03-06T17:31:24.087Z,12.45
2023-03-06T17:33:57.394Z,11.82
2023-03-06T17:36:31.118Z,27.83
2023-03-06T17:39:04.155Z,25.40
2023-03-06T17:41:34.625Z,32.72
2023-03-06T17:44:05.149Z,36.25
2023-03-06T17:46:36.086Z,33.00
2023-03-06T17:49:07.355Z,30.55
2023-03-06T17:51:40.522Z,31.27
2023-03-06T17:54:11.272Z,31.00
2023-03-06T17:56:42.114Z,27.95
2023-03-06T17:59:12.791Z,30.13
2023-03-06T18:01:45.282Z,33.45
2023-03-06T18:04:17.124Z,29.92
2023-03-06T18:06:50.477Z,26.38
2023-03-06T18:09:21.120Z,28.20
2023-03-06T18:11:52.194Z,34.03
2023-03-06T18:14:23.012Z,28.83
2023-03-06T18:16:53.783Z,30.77
2023-03-06T18:19:24.432Z,24.88
2023-03-06T18:21:57.821Z,21.52
2023-03-06T18:24:28.447Z,26.08
2023-03-06T18:26:59.159Z,31.33
2023-03-06T18:29:29.738Z,36.92
2023-03-06T18:32:00.375Z,35.25
2023-03-06T18:34:31.224Z,36.38
2023-03-06T18:37:04.715Z,36.58
2023-03-06T18:39:36.042Z,35.83
2023-03-06T18:42:07.456Z,35.88
2023-03-06T18:44:38.976Z,35.88
2023-03-06T18:47:09.889Z,29.65
2023-03-06T18:49:44.074Z,28.73
2023-03-06T18:52:17.637Z,25.73
2023-03-06T18:54:49.150Z,27.80
2023-03-06T18:57:19.965Z,25.85
2023-03-06T18:59:51.322Z,24.90
2023-03-06T19:02:23.671Z,25.67
2023-03-06T19:04:58.328Z,25.02
2023-03-06T19:07:32.411Z,25.70
2023-03-06T19:10:06.997Z,21.48
2023-03-06T19:12:38.479Z,22.30
2023-03-06T19:15:11.872Z,20.63
2023-03-06T19:17:43.254Z,23.30
2023-03-06T19:20:17.340Z,23.48
2023-03-06T19:22:53.227Z,23.50
2023-03-06T19:25:27.596Z,24.50
2023-03-06T19:27:59.499Z,24.90
2023-03-06T19:30:30.791Z,22.38
2023-03-06T19:33:02.220Z,20.42
2023-03-06T19:35:33.824Z,18.17
2023-03-06T19:38:09.528Z,21.08
2023-03-06T19:40:40.417Z,18.90
2023-03-06T19:43:11.187Z,21.13
2023-03-06T19:45:46.026Z,20.15
2023-03-06T19:48:17.988Z,20.65
2023-03-06T19:50:48.777Z,19.33
2023-03-06T19:53:21.954Z,21.48
2023-03-06T19:55:52.503Z,20.27
2023-03-06T19:58:23.022Z,19.55
2023-03-06T20:00:54.010Z,21.35
2023-03-06T20:03:28.332Z,21.88
2023-03-06T20:05:59.024Z,20.23
2023-03-06T20:08:32.313Z,19.17
2023-03-06T20:11:02.856Z,19.38
2023-03-06T20:13:34.362Z,23.80
2023-03-06T20:16:06.807Z,24.98
2023-03-06T20:18:37.588Z,26.33
2023-03-06T20:21:09.446Z,21.30
2023-03-06T20:23:42.789Z,21.00
2023-03-06T20:26:15.461Z,20.27
2023-03-06T20:28:46.604Z,20.25
2023-03-06T20:31:19.913Z,21.77
2023-03-06T20:33:53.113Z,19.85
2023-03-06T20:36:25.454Z,20.27
2023-03-06T20:38:59.165Z,20.73
2023-03-06T20:41:31.818Z,21.17
2023-03-06T20:44:03.478Z,19.08
2023-03-06T20:46:34.721Z,18.35
2023-03-06T20:49:05.193Z,19.50
2023-03-06T20:51:39.313Z,20.25
2023-03-06T20:54:15.839Z,17.75
2023-03-06T20:56:49.611Z,17.80
2023-03-06T20:59:20.294Z,17.45
2023-03-06T21:01:51.198Z,17.02
2023-03-06T21:04:21.737Z,17.00
2023-03-06T21:06:52.289Z,15.63
2023-03-06T21:09:25.471Z,16.35
2023-03-06T21:11:55.889Z,16.60
2023-03-06T21:14:26.437Z,16.27
2023-03-06T21:16:57.071Z,16.45
2023-03-06T21:19:27.556Z,15.50
2023-03-06T21:21:58.220Z,18.13
2023-03-06T21:24:31.577Z,16.90
2023-03-06T21:27:02.011Z,16.65
2023-03-06T21:29:32.839Z,17.23
2023-03-06T21:32:03.413Z,17.30
2023-03-06T21:34:33.897Z,16.52
2023-03-06T21:37:04.523Z,16.02
2023-03-06T21:39:38.748Z,16.40
2023-03-06T21:42:09.718Z,13.77
2023-03-06T21:44:40.263Z,13.88
2023-03-06T21:47:10.731Z,14.23
2023-03-06T21:49:41.527Z,14.60
2023-03-06T21:52:12.153Z,17.52
2023-03-06T21:54:45.267Z,17.88
2023-03-06T21:57:15.871Z,19.88
2023-03-06T21:59:46.297Z,20.80
2023-03-06T22:02:17.699Z,21.92
2023-03-06T22:04:52.733Z,21.55
2023-03-06T22:07:23.226Z,20.55
2023-03-06T22:09:58.415Z,20.02
2023-03-06T22:12:28.922Z,19.95
2023-03-06T22:14:59.545Z,19.55
2023-03-06T22:17:29.996Z,18.30
2023-03-06T22:20:00.570Z,22.40
2023-03-06T22:22:31.074Z,22.75
2023-03-06T22:25:05.140Z,23.17
2023-03-06T22:27:35.664Z,22.42
2023-03-06T22:30:06.324Z,28.23
2023-03-06T22:32:36.959Z,27.45
2023-03-06T22:35:08.376Z,27.10
2023-03-06T22:37:38.840Z,28.38
2023-03-06T22:40:13.756Z,28.33
2023-03-06T22:42:44.187Z,28.50
2023-03-06T22:45:15.266Z,28.70
2023-03-06T22:47:45.786Z,30.10
2023-03-06T22:50:16.398Z,27.80
2023-03-06T22:52:47.123Z,25.08
2023-03-06T22:55:20.448Z,21.98
2023-03-06T22:57:51.069Z,21.83
2023-03-06T23:00:22.585Z,23.50
2023-03-06T23:02:53.332Z,25.30
2023-03-06T23:05:24.840Z,22.25
2023-03-06T23:07:55.424Z,23.60
2023-03-06T23:10:28.704Z,21.92
2023-03-06T23:13:17.808Z,19.48
2023-03-06T23:16:08.315Z,18.65
2023-03-06T23:18:57.515Z,18.27
2023-03-06T23:21:46.751Z,19.10
2023-03-06T23:24:37.170Z,20.30
2023-03-06T23:27:10.692Z,21.15
2023-03-06T23:29:41.517Z,20.08
2023-03-06T23:32:12.691Z,19.02
2023-03-06T23:34:43.836Z,19.15
2023-03-06T23:37:14.898Z,17.85
2023-03-06T23:39:46.367Z,16.17
2023-03-06T23:42:20.292Z,16.83
2023-03-06T23:44:51.750Z,16.43
2023-03-06T23:47:22.249Z,16.02
2023-03-06T23:49:52.740Z,16.48
2023-03-06T23:52:23.487Z,16.60
2023-03-06T23:54:54.338Z,17.20
2023-03-06T23:57:27.614Z,15.80
2023-03-06T23:59:58.145Z,16.02
